sensor_id;sensor_type;location;lat;lon;timestamp;pressure;altitude;pressure_sealevel;temperature;humidity
48390;BME280;34643;47.964;7.982;2023-06-26T00:04:10;96763.88;;;22.65;43.12
48390;BME280;34643;47.964;7.982;2023-06-26T00:09:14;96759.63;;;22.54;43.33
48390;BME280;34643;47.964;7.982;2023-06-26T00:14:14;96763.09;;;22.54;43.18
48390;BME280;34643;47.964;7.982;2023-06-26T00:19:15;96764.72;;;22.65;43.17
48390;BME280;34643;47.964;7.982;2023-06-26T00:24:15;96760.72;;;22.61;43.29
48390;BME280;34643;47.964;7.982;2023-06-26T00:29:15;96768.00;;;22.49;43.63
48390;BME280;34643;47.964;7.982;2023-06-26T00:34:16;96767.50;;;22.36;44.20
48390;BME280;34643;47.964;7.982;2023-06-26T00:39:18;96775.53;;;22.25;44.27
48390;BME280;34643;47.964;7.982;2023-06-26T00:44:18;96770.00;;;22.28;44.43
48390;BME280;34643;47.964;7.982;2023-06-26T00:49:18;96770.72;;;22.30;43.88
48390;BME280;34643;47.964;7.982;2023-06-26T00:54:19;96767.38;;;22.28;44.30
48390;BME280;34643;47.964;7.982;2023-06-26T00:59:20;96772.91;;;22.25;44.32
48390;BME280;34643;47.964;7.982;2023-06-26T01:04:21;96774.16;;;22.30;44.40
48390;BME280;34643;47.964;7.982;2023-06-26T01:09:27;96776.94;;;22.29;44.62
48390;BME280;34643;47.964;7.982;2023-06-26T01:14:27;96776.50;;;22.33;44.51
48390;BME280;34643;47.964;7.982;2023-06-26T01:19:28;96771.41;;;22.32;44.52
48390;BME280;34643;47.964;7.982;2023-06-26T01:24:32;96765.00;;;22.34;44.64
48390;BME280;34643;47.964;7.982;2023-06-26T01:29:33;96755.47;;;22.24;45.27
48390;BME280;34643;47.964;7.982;2023-06-26T01:34:34;96754.78;;;22.21;45.09
48390;BME280;34643;47.964;7.982;2023-06-26T01:39:34;96750.28;;;22.14;45.25
48390;BME280;34643;47.964;7.982;2023-06-26T01:44:35;96751.50;;;22.19;45.31
48390;BME280;34643;47.964;7.982;2023-06-26T01:54:37;96742.63;;;22.20;45.45
48390;BME280;34643;47.964;7.982;2023-06-26T01:59:39;96746.06;;;22.31;45.37
48390;BME280;34643;47.964;7.982;2023-06-26T02:04:40;96746.72;;;22.33;45.42
48390;BME280;34643;47.964;7.982;2023-06-26T02:09:41;96743.81;;;22.36;45.46
48390;BME280;34643;47.964;7.982;2023-06-26T02:14:41;96748.66;;;22.40;45.46
48390;BME280;34643;47.964;7.982;2023-06-26T02:19:41;96752.38;;;22.38;45.27
48390;BME280;34643;47.964;7.982;2023-06-26T02:24:47;96754.31;;;22.46;45.44
48390;BME280;34643;47.964;7.982;2023-06-26T02:29:47;96760.66;;;22.43;45.29
48390;BME280;34643;47.964;7.982;2023-06-26T02:34:48;96754.06;;;22.39;45.44
48390;BME280;34643;47.964;7.982;2023-06-26T02:39:48;96758.94;;;22.34;45.51
48390;BME280;34643;47.964;7.982;2023-06-26T02:44:48;96760.72;;;22.33;45.45
48390;BME280;34643;47.964;7.982;2023-06-26T02:49:48;96747.19;;;22.28;45.67
48390;BME280;34643;47.964;7.982;2023-06-26T02:54:49;96755.06;;;22.18;45.92
48390;BME280;34643;47.964;7.982;2023-06-26T02:59:49;96748.00;;;22.29;45.81
48390;BME280;34643;47.964;7.982;2023-06-26T03:04:49;96752.25;;;22.39;45.02
48390;BME280;34643;47.964;7.982;2023-06-26T03:09:50;96755.88;;;22.38;44.84
48390;BME280;34643;47.964;7.982;2023-06-26T03:14:51;96754.19;;;22.37;44.45
48390;BME280;34643;47.964;7.982;2023-06-26T03:19:51;96755.66;;;22.50;44.77
48390;BME280;34643;47.964;7.982;2023-06-26T03:24:54;96757.81;;;22.82;44.26
48390;BME280;34643;47.964;7.982;2023-06-26T03:29:55;96756.63;;;22.94;44.59
48390;BME280;34643;47.964;7.982;2023-06-26T03:34:57;96758.66;;;23.01;44.62
48390;BME280;34643;47.964;7.982;2023-06-26T03:39:57;96757.41;;;23.05;44.54
48390;BME280;34643;47.964;7.982;2023-06-26T03:44:57;96757.13;;;23.08;44.78
48390;BME280;34643;47.964;7.982;2023-06-26T03:49:58;96766.50;;;23.10;44.81
48390;BME280;34643;47.964;7.982;2023-06-26T03:54:59;96767.19;;;23.12;44.56
48390;BME280;34643;47.964;7.982;2023-06-26T04:00:00;96772.97;;;23.16;44.88
48390;BME280;34643;47.964;7.982;2023-06-26T04:05:00;96770.19;;;23.18;45.05
48390;BME280;34643;47.964;7.982;2023-06-26T04:10:01;96776.94;;;23.20;44.69
48390;BME280;34643;47.964;7.982;2023-06-26T04:15:01;96775.00;;;23.22;45.11
48390;BME280;34643;47.964;7.982;2023-06-26T04:20:02;96781.91;;;23.23;45.24
48390;BME280;34643;47.964;7.982;2023-06-26T04:25:06;96788.81;;;22.33;45.90
48390;BME280;34643;47.964;7.982;2023-06-26T04:30:07;96796.53;;;21.97;46.20
48390;BME280;34643;47.964;7.982;2023-06-26T04:35:08;96789.53;;;21.39;47.45
48390;BME280;34643;47.964;7.982;2023-06-26T04:40:10;96782.38;;;21.51;47.21
48390;BME280;34643;47.964;7.982;2023-06-26T04:45:11;96787.22;;;21.45;47.55
48390;BME280;34643;47.964;7.982;2023-06-26T04:50:11;96788.31;;;21.53;47.65
48390;BME280;34643;47.964;7.982;2023-06-26T04:55:11;96793.00;;;21.59;47.74
48390;BME280;34643;47.964;7.982;2023-06-26T05:00:12;96785.06;;;22.26;46.65
48390;BME280;34643;47.964;7.982;2023-06-26T05:05:12;96794.81;;;22.53;46.22
48390;BME280;34643;47.964;7.982;2023-06-26T05:10:13;96784.25;;;22.63;46.13
48390;BME280;34643;47.964;7.982;2023-06-26T05:15:14;96786.22;;;22.78;46.03
48390;BME280;34643;47.964;7.982;2023-06-26T05:20:14;96786.75;;;22.82;46.46
48390;BME280;34643;47.964;7.982;2023-06-26T05:25:14;96786.22;;;22.78;47.00
48390;BME280;34643;47.964;7.982;2023-06-26T05:30:15;96787.19;;;22.77;46.99
48390;BME280;34643;47.964;7.982;2023-06-26T05:35:16;96786.22;;;22.78;47.12
48390;BME280;34643;47.964;7.982;2023-06-26T05:40:17;96784.94;;;22.83;47.22
48390;BME280;34643;47.964;7.982;2023-06-26T05:45:17;96781.19;;;22.85;47.16
48390;BME280;34643;47.964;7.982;2023-06-26T05:50:18;96782.69;;;22.88;47.04
48390;BME280;34643;47.964;7.982;2023-06-26T05:55:19;96784.38;;;22.89;47.03
48390;BME280;34643;47.964;7.982;2023-06-26T06:00:20;96782.41;;;22.91;47.22
48390;BME280;34643;47.964;7.982;2023-06-26T06:05:21;96783.91;;;22.93;47.48
48390;BME280;34643;47.964;7.982;2023-06-26T06:10:22;96790.69;;;22.96;47.21
48390;BME280;34643;47.964;7.982;2023-06-26T06:15:22;96783.47;;;22.98;47.24
48390;BME280;34643;47.964;7.982;2023-06-26T06:20:22;96796.34;;;23.01;47.09
48390;BME280;34643;47.964;7.982;2023-06-26T06:25:22;96783.19;;;23.01;47.37
48390;BME280;34643;47.964;7.982;2023-06-26T06:30:23;96777.75;;;23.03;47.29
48390;BME280;34643;47.964;7.982;2023-06-26T06:35:23;96778.47;;;23.05;47.24
48390;BME280;34643;47.964;7.982;2023-06-26T06:40:24;96784.41;;;23.07;47.42
48390;BME280;34643;47.964;7.982;2023-06-26T06:45:25;96785.06;;;23.09;47.59
48390;BME280;34643;47.964;7.982;2023-06-26T06:50:26;96785.06;;;23.09;47.56
48390;BME280;34643;47.964;7.982;2023-06-26T06:55:26;96784.78;;;23.12;47.71
48390;BME280;34643;47.964;7.982;2023-06-26T07:00:26;96790.72;;;23.14;47.63
48390;BME280;34643;47.964;7.982;2023-06-26T07:05:27;96793.22;;;23.15;47.47
48390;BME280;34643;47.964;7.982;2023-06-26T07:10:27;96789.28;;;23.20;47.84
48390;BME280;34643;47.964;7.982;2023-06-26T07:15:28;96792.75;;;23.20;47.83
48390;BME280;34643;47.964;7.982;2023-06-26T07:20:28;96802.16;;;23.23;47.44
48390;BME280;34643;47.964;7.982;2023-06-26T07:25:28;96801.03;;;23.25;47.62
48390;BME280;34643;47.964;7.982;2023-06-26T07:30:28;96802.69;;;23.26;47.69
48390;BME280;34643;47.964;7.982;2023-06-26T07:35:29;96796.44;;;23.27;47.63
48390;BME280;34643;47.964;7.982;2023-06-26T07:40:29;96790.19;;;23.28;47.78
48390;BME280;34643;47.964;7.982;2023-06-26T07:45:29;96789.22;;;23.29;47.53
48390;BME280;34643;47.964;7.982;2023-06-26T07:50:30;96787.25;;;23.31;47.83
48390;BME280;34643;47.964;7.982;2023-06-26T07:55:30;96795.03;;;23.33;47.85
48390;BME280;34643;47.964;7.982;2023-06-26T08:00:30;96785.31;;;23.33;47.63
48390;BME280;34643;47.964;7.982;2023-06-26T08:05:31;96785.16;;;23.35;47.64
48390;BME280;34643;47.964;7.982;2023-06-26T08:10:31;96783.34;;;23.35;47.50
48390;BME280;34643;47.964;7.982;2023-06-26T08:15:31;96773.47;;;23.38;47.97
48390;BME280;34643;47.964;7.982;2023-06-26T08:20:32;96778.59;;;23.39;48.00
48390;BME280;34643;47.964;7.982;2023-06-26T08:25:32;96780.13;;;23.42;47.62
48390;BME280;34643;47.964;7.982;2023-06-26T08:30:32;96775.66;;;23.42;47.64
48390;BME280;34643;47.964;7.982;2023-06-26T08:35:33;96763.31;;;23.43;47.59
48390;BME280;34643;47.964;7.982;2023-06-26T08:40:33;96763.97;;;23.45;47.99
48390;BME280;34643;47.964;7.982;2023-06-26T08:45:33;96755.13;;;23.46;47.81
48390;BME280;34643;47.964;7.982;2023-06-26T08:55:35;96767.00;;;23.50;48.03
48390;BME280;34643;47.964;7.982;2023-06-26T09:00:36;96770.28;;;23.52;47.70
48390;BME280;34643;47.964;7.982;2023-06-26T09:05:36;96778.03;;;23.53;47.78
48390;BME280;34643;47.964;7.982;2023-06-26T09:10:37;96776.09;;;23.56;47.70
48390;BME280;34643;47.964;7.982;2023-06-26T09:15:46;96775.13;;;23.57;47.71
48390;BME280;34643;47.964;7.982;2023-06-26T09:20:46;96781.19;;;23.57;48.00
48390;BME280;34643;47.964;7.982;2023-06-26T09:25:47;96781.88;;;23.59;48.33
48390;BME280;34643;47.964;7.982;2023-06-26T09:30:47;96790.78;;;23.58;48.23
48390;BME280;34643;47.964;7.982;2023-06-26T09:35:47;96797.69;;;23.59;48.48
48390;BME280;34643;47.964;7.982;2023-06-26T09:40:48;96809.88;;;23.60;48.75
48390;BME280;34643;47.964;7.982;2023-06-26T09:45:48;96810.69;;;23.61;48.67
48390;BME280;34643;47.964;7.982;2023-06-26T09:50:48;96823.88;;;23.61;48.44
48390;BME280;34643;47.964;7.982;2023-06-26T09:55:49;96829.00;;;23.62;48.89
48390;BME280;34643;47.964;7.982;2023-06-26T10:00:49;96828.03;;;23.63;48.48
48390;BME280;34643;47.964;7.982;2023-06-26T10:05:50;96842.69;;;23.66;48.73
48390;BME280;34643;47.964;7.982;2023-06-26T10:10:51;96847.81;;;23.67;48.60
48390;BME280;34643;47.964;7.982;2023-06-26T10:15:52;96853.09;;;23.67;48.80
48390;BME280;34643;47.964;7.982;2023-06-26T10:20:54;96854.75;;;23.68;49.40
48390;BME280;34643;47.964;7.982;2023-06-26T10:25:55;96866.94;;;23.69;49.19
48390;BME280;34643;47.964;7.982;2023-06-26T10:30:58;96879.16;;;23.70;49.44
48390;BME280;34643;47.964;7.982;2023-06-26T10:36:15;96884.41;;;23.70;49.53
48390;BME280;34643;47.964;7.982;2023-06-26T10:41:15;96882.59;;;23.71;49.54
48390;BME280;34643;47.964;7.982;2023-06-26T10:46:19;96880.47;;;23.75;49.36
48390;BME280;34643;47.964;7.982;2023-06-26T10:51:20;96888.38;;;23.75;49.95
48390;BME280;34643;47.964;7.982;2023-06-26T10:56:20;96869.94;;;23.75;49.62
48390;BME280;34643;47.964;7.982;2023-06-26T11:01:21;96875.22;;;23.75;49.80
48390;BME280;34643;47.964;7.982;2023-06-26T11:06:22;96882.16;;;23.76;49.46
48390;BME280;34643;47.964;7.982;2023-06-26T11:11:22;96876.88;;;23.76;49.47
48390;BME280;34643;47.964;7.982;2023-06-26T11:16:42;96873.25;;;23.77;49.48
48390;BME280;34643;47.964;7.982;2023-06-26T11:21:42;96871.28;;;23.79;49.73
48390;BME280;34643;47.964;7.982;2023-06-26T11:26:44;96868.66;;;23.79;49.44
48390;BME280;34643;47.964;7.982;2023-06-26T11:31:45;96861.47;;;23.81;49.79
48390;BME280;34643;47.964;7.982;2023-06-26T11:36:45;96870.19;;;23.81;49.46
48390;BME280;34643;47.964;7.982;2023-06-26T11:41:47;96871.69;;;23.84;49.87
48390;BME280;34643;47.964;7.982;2023-06-26T11:46:51;96882.91;;;23.86;49.34
48390;BME280;34643;47.964;7.982;2023-06-26T11:51:52;96880.81;;;23.89;49.46
48390;BME280;34643;47.964;7.982;2023-06-26T11:56:53;96880.63;;;23.91;49.46
48390;BME280;34643;47.964;7.982;2023-06-26T12:01:54;96876.22;;;23.91;49.41
48390;BME280;34643;47.964;7.982;2023-06-26T12:06:54;96861.22;;;23.92;49.43
48390;BME280;34643;47.964;7.982;2023-06-26T12:11:57;96861.06;;;23.94;48.97
48390;BME280;34643;47.964;7.982;2023-06-26T12:17:03;96866.50;;;23.92;49.65
48390;BME280;34643;47.964;7.982;2023-06-26T12:22:07;96870.09;;;23.91;49.79
48390;BME280;34643;47.964;7.982;2023-06-26T12:27:11;96869.28;;;23.90;49.36
48390;BME280;34643;47.964;7.982;2023-06-26T12:32:12;96884.28;;;23.90;49.46
48390;BME280;34643;47.964;7.982;2023-06-26T12:37:14;96884.28;;;23.90;49.64
48390;BME280;34643;47.964;7.982;2023-06-26T12:42:15;96889.53;;;23.90;49.48
48390;BME280;34643;47.964;7.982;2023-06-26T12:47:16;96888.53;;;23.91;49.29
48390;BME280;34643;47.964;7.982;2023-06-26T12:52:17;96877.03;;;23.92;49.45
48390;BME280;34643;47.964;7.982;2023-06-26T12:57:20;96872.44;;;23.94;49.53
48390;BME280;34643;47.964;7.982;2023-06-26T13:02:20;96875.06;;;23.94;49.29
48390;BME280;34643;47.964;7.982;2023-06-26T13:07:21;96877.69;;;23.94;49.36
48390;BME280;34643;47.964;7.982;2023-06-26T13:12:25;96873.25;;;23.95;49.07
48390;BME280;34643;47.964;7.982;2023-06-26T13:17:25;96875.75;;;23.96;49.17
48390;BME280;34643;47.964;7.982;2023-06-26T13:22:25;96862.56;;;23.96;49.23
48390;BME280;34643;47.964;7.982;2023-06-26T13:27:25;96864.22;;;23.97;48.96
48390;BME280;34643;47.964;7.982;2023-06-26T13:32:26;96855.31;;;23.98;49.02
48390;BME280;34643;47.964;7.982;2023-06-26T13:37:26;96853.38;;;24.00;48.91
48390;BME280;34643;47.964;7.982;2023-06-26T13:42:26;96851.72;;;23.99;49.11
48390;BME280;34643;47.964;7.982;2023-06-26T13:47:27;96852.53;;;24.00;49.31
48390;BME280;34643;47.964;7.982;2023-06-26T13:52:27;96846.28;;;24.01;49.09
48390;BME280;34643;47.964;7.982;2023-06-26T13:57:27;96848.94;;;24.01;49.26
48390;BME280;34643;47.964;7.982;2023-06-26T14:02:28;96847.09;;;24.01;49.06
48390;BME280;34643;47.964;7.982;2023-06-26T14:07:29;96850.56;;;24.02;49.20
48390;BME280;34643;47.964;7.982;2023-06-26T14:12:29;96856.69;;;24.02;49.23
48390;BME280;34643;47.964;7.982;2023-06-26T14:17:29;96849.44;;;24.04;49.01
48390;BME280;34643;47.964;7.982;2023-06-26T14:22:30;96847.63;;;24.05;49.20
48390;BME280;34643;47.964;7.982;2023-06-26T14:27:30;96851.09;;;24.05;49.16
48390;BME280;34643;47.964;7.982;2023-06-26T14:32:30;96852.75;;;24.06;49.16
48390;BME280;34643;47.964;7.982;2023-06-26T14:37:31;96845.66;;;24.07;49.12
48390;BME280;34643;47.964;7.982;2023-06-26T14:42:31;96851.78;;;24.07;49.06
48390;BME280;34643;47.964;7.982;2023-06-26T14:47:31;96850.94;;;24.07;48.93
48390;BME280;34643;47.964;7.982;2023-06-26T14:52:31;96851.78;;;24.07;49.30
48390;BME280;34643;47.964;7.982;2023-06-26T14:57:32;96847.31;;;24.08;48.94
48390;BME280;34643;47.964;7.982;2023-06-26T15:02:32;96843.69;;;24.09;49.19
48390;BME280;34643;47.964;7.982;2023-06-26T15:07:32;96844.53;;;24.09;49.20
48390;BME280;34643;47.964;7.982;2023-06-26T15:12:33;96845.34;;;24.10;49.25
48390;BME280;34643;47.964;7.982;2023-06-26T15:17:33;96840.22;;;24.08;49.19
48390;BME280;34643;47.964;7.982;2023-06-26T15:22:34;96851.44;;;24.10;48.92
48390;BME280;34643;47.964;7.982;2023-06-26T15:27:34;96843.53;;;24.10;49.13
48390;BME280;34643;47.964;7.982;2023-06-26T15:32:34;96848.00;;;24.10;49.06
48390;BME280;34643;47.964;7.982;2023-06-26T15:37:35;96848.00;;;24.10;49.25
48390;BME280;34643;47.964;7.982;2023-06-26T15:42:44;96832.84;;;24.12;49.12
48390;BME280;34643;47.964;7.982;2023-06-26T15:47:44;96834.66;;;24.12;48.90
48390;BME280;34643;47.964;7.982;2023-06-26T15:52:45;96831.06;;;24.13;49.18
48390;BME280;34643;47.964;7.982;2023-06-26T15:57:45;96842.94;;;24.17;49.09
48390;BME280;34643;47.964;7.982;2023-06-26T16:02:46;96842.44;;;24.21;49.18
48390;BME280;34643;47.964;7.982;2023-06-26T16:07:46;96836.56;;;24.27;49.12
48390;BME280;34643;47.964;7.982;2023-06-26T16:12:46;96849.97;;;24.34;48.72
48390;BME280;34643;47.964;7.982;2023-06-26T16:17:46;96848.16;;;24.35;49.36
48390;BME280;34643;47.964;7.982;2023-06-26T16:22:47;96850.28;;;24.31;50.19
48390;BME280;34643;47.964;7.982;2023-06-26T16:27:47;96861.19;;;24.36;50.24
48390;BME280;34643;47.964;7.982;2023-06-26T16:32:48;96860.00;;;24.31;50.43
48390;BME280;34643;47.964;7.982;2023-06-26T16:37:49;96852.25;;;24.29;50.96
48390;BME280;34643;47.964;7.982;2023-06-26T16:42:49;96856.50;;;24.30;51.55
48390;BME280;34643;47.964;7.982;2023-06-26T16:47:50;96859.16;;;24.30;51.63
48390;BME280;34643;47.964;7.982;2023-06-26T16:52:50;96869.69;;;24.30;51.39
48390;BME280;34643;47.964;7.982;2023-06-26T16:57:50;96882.88;;;24.30;51.43
48390;BME280;34643;47.964;7.982;2023-06-26T17:02:51;96883.75;;;24.31;51.15
48390;BME280;34643;47.964;7.982;2023-06-26T17:07:51;96883.88;;;24.29;51.19
48390;BME280;34643;47.964;7.982;2023-06-26T17:12:51;96891.66;;;24.31;51.15
48390;BME280;34643;47.964;7.982;2023-06-26T17:17:52;96900.53;;;24.29;51.10
48390;BME280;34643;47.964;7.982;2023-06-26T17:22:52;96894.44;;;24.29;50.88
48390;BME280;34643;47.964;7.982;2023-06-26T17:27:52;96895.25;;;24.29;50.94
48390;BME280;34643;47.964;7.982;2023-06-26T17:32:53;96902.34;;;24.29;51.01
48390;BME280;34643;47.964;7.982;2023-06-26T17:37:54;96914.53;;;24.30;50.80
48390;BME280;34643;47.964;7.982;2023-06-26T17:42:55;96919.16;;;24.28;50.65
48390;BME280;34643;47.964;7.982;2023-06-26T17:47:55;96925.09;;;24.30;50.46
48390;BME280;34643;47.964;7.982;2023-06-26T17:52:56;96920.56;;;24.40;50.34
48390;BME280;34643;47.964;7.982;2023-06-26T17:57:58;96932.09;;;24.39;50.08
48390;BME280;34643;47.964;7.982;2023-06-26T18:02:58;96942.31;;;23.98;43.52
48390;BME280;34643;47.964;7.982;2023-06-26T18:07:59;96940.28;;;24.10;45.19
48390;BME280;34643;47.964;7.982;2023-06-26T18:13:00;96947.41;;;24.18;45.07
48390;BME280;34643;47.964;7.982;2023-06-26T18:18:00;96953.53;;;24.18;45.07
48390;BME280;34643;47.964;7.982;2023-06-26T18:23:00;96966.19;;;24.33;46.04
48390;BME280;34643;47.964;7.982;2023-06-26T18:28:00;96961.41;;;24.36;46.14
48390;BME280;34643;47.964;7.982;2023-06-26T18:33:01;96977.63;;;24.41;47.17
48390;BME280;34643;47.964;7.982;2023-06-26T18:38:01;96963.13;;;24.45;47.38
48390;BME280;34643;47.964;7.982;2023-06-26T18:43:02;96967.44;;;24.46;47.76
48390;BME280;34643;47.964;7.982;2023-06-26T18:48:02;96977.00;;;24.47;47.92
48390;BME280;34643;47.964;7.982;2023-06-26T18:53:05;96982.91;;;24.41;48.39
48390;BME280;34643;47.964;7.982;2023-06-26T18:58:05;96986.50;;;24.40;48.59
48390;BME280;34643;47.964;7.982;2023-06-26T19:03:05;96983.03;;;24.40;48.88
48390;BME280;34643;47.964;7.982;2023-06-26T19:08:06;96981.22;;;24.40;48.74
48390;BME280;34643;47.964;7.982;2023-06-26T19:13:06;96991.78;;;24.40;48.93
48390;BME280;34643;47.964;7.982;2023-06-26T19:18:07;96997.06;;;24.40;49.26
48390;BME280;34643;47.964;7.982;2023-06-26T19:23:07;97012.06;;;24.40;49.45
48390;BME280;34643;47.964;7.982;2023-06-26T19:28:07;97015.53;;;24.40;49.69
48390;BME280;34643;47.964;7.982;2023-06-26T19:33:10;97019.97;;;24.40;49.69
48390;BME280;34643;47.964;7.982;2023-06-26T19:38:10;97015.66;;;24.39;49.82
48390;BME280;34643;47.964;7.982;2023-06-26T19:43:11;97025.41;;;23.84;43.54
48390;BME280;34643;47.964;7.982;2023-06-26T19:48:11;97029.00;;;23.56;42.90
48390;BME280;34643;47.964;7.982;2023-06-26T19:53:11;97042.72;;;23.31;43.27
48390;BME280;34643;47.964;7.982;2023-06-26T19:58:12;97048.16;;;23.20;43.92
48390;BME280;34643;47.964;7.982;2023-06-26T20:03:12;97048.72;;;23.51;43.63
48390;BME280;34643;47.964;7.982;2023-06-26T20:08:12;97050.94;;;23.56;43.30
48390;BME280;34643;47.964;7.982;2023-06-26T20:13:13;97062.44;;;23.55;43.45
48390;BME280;34643;47.964;7.982;2023-06-26T20:18:13;97072.44;;;23.51;43.64
48390;BME280;34643;47.964;7.982;2023-06-26T20:28:13;97084.38;;;23.46;43.56
48390;BME280;34643;47.964;7.982;2023-06-26T20:33:14;97085.66;;;23.42;43.52
48390;BME280;34643;47.964;7.982;2023-06-26T20:38:14;97088.56;;;23.39;43.44
48390;BME280;34643;47.964;7.982;2023-06-26T20:43:14;97094.66;;;23.39;43.11
48390;BME280;34643;47.964;7.982;2023-06-26T20:48:17;97092.84;;;23.40;43.43
48390;BME280;34643;47.964;7.982;2023-06-26T20:53:17;97097.03;;;23.32;43.10
48390;BME280;34643;47.964;7.982;2023-06-26T20:58:18;97100.53;;;23.33;43.43
48390;BME280;34643;47.964;7.982;2023-06-26T21:03:18;97108.97;;;23.37;43.10
48390;BME280;34643;47.964;7.982;2023-06-26T21:08:18;97112.56;;;23.35;42.97
48390;BME280;34643;47.964;7.982;2023-06-26T21:13:18;97110.50;;;23.29;42.80
48390;BME280;34643;47.964;7.982;2023-06-26T21:18:19;97118.00;;;23.24;42.83
48390;BME280;34643;47.964;7.982;2023-06-26T21:23:19;97123.44;;;23.13;42.99
48390;BME280;34643;47.964;7.982;2023-06-26T21:28:19;97125.91;;;23.24;43.01
48390;BME280;34643;47.964;7.982;2023-06-26T21:33:20;97133.13;;;23.22;42.55
48390;BME280;34643;47.964;7.982;2023-06-26T21:38:20;97133.53;;;23.18;42.57
48390;BME280;34643;47.964;7.982;2023-06-26T21:43:20;97138.41;;;23.12;42.81
48390;BME280;34643;47.964;7.982;2023-06-26T21:48:21;97149.50;;;23.06;42.74
48390;BME280;34643;47.964;7.982;2023-06-26T21:53:21;97156.16;;;23.01;42.64
48390;BME280;34643;47.964;7.982;2023-06-26T21:58:22;97167.50;;;23.01;42.80
48390;BME280;34643;47.964;7.982;2023-06-26T22:03:22;97167.22;;;23.04;42.78
48390;BME280;34643;47.964;7.982;2023-06-26T22:08:22;97167.81;;;23.08;43.26
48390;BME280;34643;47.964;7.982;2023-06-26T22:13:23;97158.38;;;23.05;43.25
48390;BME280;34643;47.964;7.982;2023-06-26T22:18:23;97162.69;;;23.06;43.45
48390;BME280;34643;47.964;7.982;2023-06-26T22:23:23;97157.28;;;23.08;43.79
48390;BME280;34643;47.964;7.982;2023-06-26T22:28:24;97163.75;;;23.04;43.64
48390;BME280;34643;47.964;7.982;2023-06-26T22:33:24;97163.63;;;23.05;44.20
48390;BME280;34643;47.964;7.982;2023-06-26T22:38:24;97155.03;;;22.84;44.87
48390;BME280;34643;47.964;7.982;2023-06-26T22:43:25;97164.72;;;22.93;44.93
48390;BME280;34643;47.964;7.982;2023-06-26T22:48:25;97161.00;;;22.95;45.12
48390;BME280;34643;47.964;7.982;2023-06-26T22:53:26;97158.63;;;22.92;45.33
48390;BME280;34643;47.964;7.982;2023-06-26T22:58:27;97168.06;;;22.85;45.44
48390;BME280;34643;47.964;7.982;2023-06-26T23:03:27;97165.97;;;22.69;44.71
48390;BME280;34643;47.964;7.982;2023-06-26T23:08:27;97163.75;;;22.65;45.22
48390;BME280;34643;47.964;7.982;2023-06-26T23:13:28;97171.66;;;22.74;45.33
48390;BME280;34643;47.964;7.982;2023-06-26T23:18:28;97158.09;;;22.69;45.16
48390;BME280;34643;47.964;7.982;2023-06-26T23:23:29;97156.69;;;22.75;44.69
48390;BME280;34643;47.964;7.982;2023-06-26T23:28:29;97163.63;;;22.66;44.62
48390;BME280;34643;47.964;7.982;2023-06-26T23:33:32;97168.47;;;22.71;44.55
48390;BME280;34643;47.964;7.982;2023-06-26T23:38:40;97169.16;;;22.73;44.76
48390;BME280;34643;47.964;7.982;2023-06-26T23:43:42;97168.06;;;22.66;44.71
48390;BME280;34643;47.964;7.982;2023-06-26T23:48:43;97175.13;;;22.65;44.53
48390;BME280;34643;47.964;7.982;2023-06-26T23:53:43;97170.53;;;22.57;44.41
48390;BME280;34643;47.964;7.982;2023-06-26T23:58:44;97169.44;;;22.60;44.51
